Warrensburg, MO

10:59 PM CST on December 21, 2014 (GMT -0600)
Whiteman Air Force Base | Change Station
CLOSE
Current Station
Airport
Location: Whiteman AFB,
Elevation: 869 ft
Nearby Weather Stations

Elev 869 ft 38.73 °N, 93.55 °W | Updated 1 hour ago

Overcast
Overcast
42 °F
Feels Like 34 °F
N
16
Wind Variable Wind from SSE
Gusts 23 mph

Today
High -- | Low -- °F
--% Chance of Precip.
Yesterday
High -- | Low -- °F
Precip. -- in
7:29 AM 4:56 PM
New Moon, 0% visible
Pressure 29.82 in
Visibility 10.0 miles
Clouds Overcast 4600 ft
Windchill 34 °F
Dew Point 36 °F
Humidity 78%
Rainfall 0.00 in
Snow Depth Not available.
UV 0 out of 12
Pollen .10 out of 12
Air Quality Not available.
Flu Activity Not available.
METAR KSZL 220358Z AUTO 16014G20KT 10SM OVC046 06/02 A2980 RMK AO2 SLP098 T00560021 $

More Conditions Fewer Conditions

Pressure 29.82 in
Visibility 10.0 miles
Clouds Overcast 4600 ft
Windchill 34 °F
Dew Point 36 °F
Humidity 78%
Rainfall 0.00 in
Snow Depth Not available.
UV 0 out of 12
Pollen .10 out of 12
Air Quality Not available.
Flu Activity Not available.
METAR KSZL 220358Z AUTO 16014G20KT 10SM OVC046 06/02 A2980 RMK AO2 SLP098 T00560021 $

More Conditions Fewer Conditions

10-Day Weather Forecast

Almanac

Astronomy

Dec. 21, 2014 Rise Set
Actual Time
Civil Twilight
Nautical Twilight
Astronomical Twilight
Moon
Length of Visible Light
Length of Day
Tomorrow will be .
, % of the Moon is Illuminated

Today's Extremes

State Highs State Lows

Community

WunderPhotos

Upload Photos

1,779,540 photos uploaded!

WunderBlogs® & News

Nearby

Air Quality

  Air Quality AQ Index Pollutant
Not available.

Snow Depth

Station Depth Elevation

Earthquake Activity

City Distance Mag. Time & Date
Minimum magnitude displayed is 2.5.

Coastal Water Temperatures

Place Temperature

Nearby Weather Stations